sensor_id;sensor_type;location;lat;lon;timestamp;P1;durP1;ratioP1;P2;durP2;ratioP2
76167;SDS011;64927;48.214;16.378;2023-02-10T00:01:17;31.13;;;16.73;;
76167;SDS011;64927;48.214;16.378;2023-02-10T00:03:51;30.33;;;17.15;;
76167;SDS011;64927;48.214;16.378;2023-02-10T00:06:20;29.48;;;15.73;;
76167;SDS011;64927;48.214;16.378;2023-02-10T00:08:52;28.13;;;15.40;;
76167;SDS011;64927;48.214;16.378;2023-02-10T00:11:20;26.60;;;16.55;;
76167;SDS011;64927;48.214;16.378;2023-02-10T00:14:06;30.00;;;16.50;;
76167;SDS011;64927;48.214;16.378;2023-02-10T00:16:34;29.30;;;16.25;;
76167;SDS011;64927;48.214;16.378;2023-02-10T00:19:00;29.13;;;16.55;;
76167;SDS011;64927;48.214;16.378;2023-02-10T00:21:28;28.15;;;16.17;;
76167;SDS011;64927;48.214;16.378;2023-02-10T00:23:54;30.33;;;15.77;;
76167;SDS011;64927;48.214;16.378;2023-02-10T00:26:19;26.42;;;15.98;;
76167;SDS011;64927;48.214;16.378;2023-02-10T00:28:45;27.88;;;16.10;;
76167;SDS011;64927;48.214;16.378;2023-02-10T00:31:12;30.17;;;16.35;;
76167;SDS011;64927;48.214;16.378;2023-02-10T00:33:39;25.08;;;15.85;;
76167;SDS011;64927;48.214;16.378;2023-02-10T00:36:09;27.92;;;16.50;;
76167;SDS011;64927;48.214;16.378;2023-02-10T00:38:39;28.02;;;16.20;;
76167;SDS011;64927;48.214;16.378;2023-02-10T00:41:06;26.17;;;15.02;;
76167;SDS011;64927;48.214;16.378;2023-02-10T00:43:44;27.13;;;15.73;;
76167;SDS011;64927;48.214;16.378;2023-02-10T00:46:10;28.15;;;15.38;;
76167;SDS011;64927;48.214;16.378;2023-02-10T00:48:39;27.77;;;14.90;;
76167;SDS011;64927;48.214;16.378;2023-02-10T00:51:05;28.52;;;15.50;;
76167;SDS011;64927;48.214;16.378;2023-02-10T00:53:31;25.08;;;15.02;;
76167;SDS011;64927;48.214;16.378;2023-02-10T00:55:58;27.88;;;15.82;;
76167;SDS011;64927;48.214;16.378;2023-02-10T00:58:23;26.40;;;15.25;;
76167;SDS011;64927;48.214;16.378;2023-02-10T01:00:50;27.55;;;15.80;;
76167;SDS011;64927;48.214;16.378;2023-02-10T01:03:19;29.08;;;15.35;;
76167;SDS011;64927;48.214;16.378;2023-02-10T01:05:44;28.17;;;15.88;;
76167;SDS011;64927;48.214;16.378;2023-02-10T01:08:10;27.77;;;16.70;;
76167;SDS011;64927;48.214;16.378;2023-02-10T01:10:37;32.05;;;16.75;;
76167;SDS011;64927;48.214;16.378;2023-02-10T01:13:06;29.83;;;16.30;;
76167;SDS011;64927;48.214;16.378;2023-02-10T01:15:35;28.58;;;16.60;;
76167;SDS011;64927;48.214;16.378;2023-02-10T01:18:05;34.22;;;16.67;;
76167;SDS011;64927;48.214;16.378;2023-02-10T01:20:31;30.60;;;17.02;;
76167;SDS011;64927;48.214;16.378;2023-02-10T01:22:58;31.27;;;17.85;;
76167;SDS011;64927;48.214;16.378;2023-02-10T01:25:24;29.73;;;16.35;;
76167;SDS011;64927;48.214;16.378;2023-02-10T01:27:50;31.60;;;18.10;;
76167;SDS011;64927;48.214;16.378;2023-02-10T01:30:15;35.28;;;17.98;;
76167;SDS011;64927;48.214;16.378;2023-02-10T01:32:44;32.05;;;17.15;;
76167;SDS011;64927;48.214;16.378;2023-02-10T01:35:09;41.83;;;17.75;;
76167;SDS011;64927;48.214;16.378;2023-02-10T01:37:35;32.95;;;18.60;;
76167;SDS011;64927;48.214;16.378;2023-02-10T01:40:03;31.00;;;17.85;;
76167;SDS011;64927;48.214;16.378;2023-02-10T01:42:29;35.78;;;19.23;;
76167;SDS011;64927;48.214;16.378;2023-02-10T01:47:40;35.28;;;17.55;;
76167;SDS011;64927;48.214;16.378;2023-02-10T01:50:07;36.45;;;19.65;;
76167;SDS011;64927;48.214;16.378;2023-02-10T01:52:35;31.15;;;18.48;;
76167;SDS011;64927;48.214;16.378;2023-02-10T01:55:05;38.45;;;19.25;;
76167;SDS011;64927;48.214;16.378;2023-02-10T01:57:35;40.20;;;18.48;;
76167;SDS011;64927;48.214;16.378;2023-02-10T02:00:04;35.50;;;18.95;;
76167;SDS011;64927;48.214;16.378;2023-02-10T02:02:31;40.30;;;18.70;;
76167;SDS011;64927;48.214;16.378;2023-02-10T02:05:00;34.53;;;19.63;;
76167;SDS011;64927;48.214;16.378;2023-02-10T02:07:32;35.15;;;19.77;;
76167;SDS011;64927;48.214;16.378;2023-02-10T02:10:00;44.05;;;19.98;;
76167;SDS011;64927;48.214;16.378;2023-02-10T02:23:32;36.10;;;19.33;;
76167;SDS011;64927;48.214;16.378;2023-02-10T02:26:05;35.60;;;18.63;;
76167;SDS011;64927;48.214;16.378;2023-02-10T02:36:59;39.92;;;19.10;;
76167;SDS011;64927;48.214;16.378;2023-02-10T02:39:28;34.92;;;20.10;;
76167;SDS011;64927;48.214;16.378;2023-02-10T02:42:06;38.70;;;20.77;;
76167;SDS011;64927;48.214;16.378;2023-02-10T02:44:40;35.55;;;19.48;;
76167;SDS011;64927;48.214;16.378;2023-02-10T02:52:23;36.35;;;19.73;;
76167;SDS011;64927;48.214;16.378;2023-02-10T02:55:04;30.35;;;17.42;;
76167;SDS011;64927;48.214;16.378;2023-02-10T03:02:34;36.30;;;20.58;;
76167;SDS011;64927;48.214;16.378;2023-02-10T03:05:02;39.03;;;20.83;;
76167;SDS011;64927;48.214;16.378;2023-02-10T03:07:28;39.05;;;19.83;;
76167;SDS011;64927;48.214;16.378;2023-02-10T03:09:56;36.00;;;20.52;;
76167;SDS011;64927;48.214;16.378;2023-02-10T03:12:22;35.13;;;20.52;;
76167;SDS011;64927;48.214;16.378;2023-02-10T03:14:47;38.08;;;21.45;;
76167;SDS011;64927;48.214;16.378;2023-02-10T03:17:15;39.65;;;19.83;;
76167;SDS011;64927;48.214;16.378;2023-02-10T03:19:41;42.97;;;22.67;;
76167;SDS011;64927;48.214;16.378;2023-02-10T03:22:09;42.58;;;21.48;;
76167;SDS011;64927;48.214;16.378;2023-02-10T03:24:35;38.45;;;21.60;;
76167;SDS011;64927;48.214;16.378;2023-02-10T03:27:00;40.47;;;21.65;;
76167;SDS011;64927;48.214;16.378;2023-02-10T03:29:30;38.42;;;21.30;;
76167;SDS011;64927;48.214;16.378;2023-02-10T03:31:56;37.67;;;21.25;;
76167;SDS011;64927;48.214;16.378;2023-02-10T03:34:22;38.22;;;21.55;;
76167;SDS011;64927;48.214;16.378;2023-02-10T03:36:48;35.55;;;19.55;;
76167;SDS011;64927;48.214;16.378;2023-02-10T03:39:13;40.53;;;20.92;;
76167;SDS011;64927;48.214;16.378;2023-02-10T03:41:39;35.67;;;20.73;;
76167;SDS011;64927;48.214;16.378;2023-02-10T03:44:05;35.97;;;21.23;;
76167;SDS011;64927;48.214;16.378;2023-02-10T03:46:31;35.65;;;20.63;;
76167;SDS011;64927;48.214;16.378;2023-02-10T03:48:56;39.28;;;20.45;;
76167;SDS011;64927;48.214;16.378;2023-02-10T03:51:22;39.60;;;20.38;;
76167;SDS011;64927;48.214;16.378;2023-02-10T03:53:52;32.97;;;19.80;;
76167;SDS011;64927;48.214;16.378;2023-02-10T03:56:18;40.80;;;21.45;;
76167;SDS011;64927;48.214;16.378;2023-02-10T03:58:43;37.55;;;20.88;;
76167;SDS011;64927;48.214;16.378;2023-02-10T04:01:13;38.58;;;21.15;;
76167;SDS011;64927;48.214;16.378;2023-02-10T04:03:41;41.05;;;20.27;;
76167;SDS011;64927;48.214;16.378;2023-02-10T04:06:07;33.70;;;19.50;;
76167;SDS011;64927;48.214;16.378;2023-02-10T04:08:36;39.25;;;21.85;;
76167;SDS011;64927;48.214;16.378;2023-02-10T04:11:03;36.65;;;19.60;;
76167;SDS011;64927;48.214;16.378;2023-02-10T04:13:32;37.00;;;18.98;;
76167;SDS011;64927;48.214;16.378;2023-02-10T04:16:04;36.33;;;21.35;;
76167;SDS011;64927;48.214;16.378;2023-02-10T04:18:35;37.28;;;21.20;;
76167;SDS011;64927;48.214;16.378;2023-02-10T04:21:01;38.58;;;20.23;;
76167;SDS011;64927;48.214;16.378;2023-02-10T04:23:28;40.38;;;21.20;;
76167;SDS011;64927;48.214;16.378;2023-02-10T04:25:54;36.40;;;20.80;;
76167;SDS011;64927;48.214;16.378;2023-02-10T04:28:20;35.88;;;20.30;;
76167;SDS011;64927;48.214;16.378;2023-02-10T04:30:46;43.22;;;24.67;;
76167;SDS011;64927;48.214;16.378;2023-02-10T04:33:18;41.50;;;22.60;;
76167;SDS011;64927;48.214;16.378;2023-02-10T04:35:43;41.42;;;21.77;;
76167;SDS011;64927;48.214;16.378;2023-02-10T04:38:11;43.60;;;24.23;;
76167;SDS011;64927;48.214;16.378;2023-02-10T04:40:37;38.25;;;21.80;;
76167;SDS011;64927;48.214;16.378;2023-02-10T04:43:04;35.95;;;20.27;;
76167;SDS011;64927;48.214;16.378;2023-02-10T04:45:30;38.67;;;20.33;;
76167;SDS011;64927;48.214;16.378;2023-02-10T04:47:56;39.38;;;21.00;;
76167;SDS011;64927;48.214;16.378;2023-02-10T04:50:22;36.90;;;21.17;;
76167;SDS011;64927;48.214;16.378;2023-02-10T04:52:47;38.80;;;21.02;;
76167;SDS011;64927;48.214;16.378;2023-02-10T04:55:13;37.50;;;21.17;;
76167;SDS011;64927;48.214;16.378;2023-02-10T04:57:39;39.08;;;21.63;;
76167;SDS011;64927;48.214;16.378;2023-02-10T05:00:09;33.80;;;19.60;;
76167;SDS011;64927;48.214;16.378;2023-02-10T05:02:36;38.08;;;22.15;;
76167;SDS011;64927;48.214;16.378;2023-02-10T05:05:02;41.97;;;22.20;;
76167;SDS011;64927;48.214;16.378;2023-02-10T05:07:27;40.80;;;21.33;;
76167;SDS011;64927;48.214;16.378;2023-02-10T05:09:56;41.88;;;21.83;;
76167;SDS011;64927;48.214;16.378;2023-02-10T05:12:21;36.55;;;21.33;;
76167;SDS011;64927;48.214;16.378;2023-02-10T05:14:47;38.90;;;21.85;;
76167;SDS011;64927;48.214;16.378;2023-02-10T05:17:13;42.90;;;22.90;;
76167;SDS011;64927;48.214;16.378;2023-02-10T05:19:38;36.58;;;20.25;;
76167;SDS011;64927;48.214;16.378;2023-02-10T05:22:04;44.17;;;22.27;;
76167;SDS011;64927;48.214;16.378;2023-02-10T05:24:32;45.80;;;22.63;;
76167;SDS011;64927;48.214;16.378;2023-02-10T05:26:58;41.88;;;22.20;;
76167;SDS011;64927;48.214;16.378;2023-02-10T05:29:24;40.00;;;20.40;;
76167;SDS011;64927;48.214;16.378;2023-02-10T05:31:49;38.63;;;21.45;;
76167;SDS011;64927;48.214;16.378;2023-02-10T05:34:15;40.85;;;21.75;;
76167;SDS011;64927;48.214;16.378;2023-02-10T05:36:41;41.10;;;22.02;;
76167;SDS011;64927;48.214;16.378;2023-02-10T05:39:09;40.92;;;22.58;;
76167;SDS011;64927;48.214;16.378;2023-02-10T05:41:54;40.90;;;22.13;;
76167;SDS011;64927;48.214;16.378;2023-02-10T05:44:22;45.65;;;23.38;;
76167;SDS011;64927;48.214;16.378;2023-02-10T05:46:49;40.00;;;22.88;;
76167;SDS011;64927;48.214;16.378;2023-02-10T05:49:15;44.85;;;23.05;;
76167;SDS011;64927;48.214;16.378;2023-02-10T05:51:41;41.78;;;21.90;;
76167;SDS011;64927;48.214;16.378;2023-02-10T05:54:10;38.58;;;21.27;;
76167;SDS011;64927;48.214;16.378;2023-02-10T05:56:36;47.22;;;25.92;;
76167;SDS011;64927;48.214;16.378;2023-02-10T05:59:02;50.63;;;23.20;;
76167;SDS011;64927;48.214;16.378;2023-02-10T06:01:31;42.25;;;20.92;;
76167;SDS011;64927;48.214;16.378;2023-02-10T06:03:57;42.42;;;23.00;;
76167;SDS011;64927;48.214;16.378;2023-02-10T06:06:23;48.78;;;23.83;;
76167;SDS011;64927;48.214;16.378;2023-02-10T06:08:49;46.13;;;23.95;;
76167;SDS011;64927;48.214;16.378;2023-02-10T06:11:17;42.78;;;21.77;;
76167;SDS011;64927;48.214;16.378;2023-02-10T06:13:43;52.60;;;24.15;;
76167;SDS011;64927;48.214;16.378;2023-02-10T06:16:09;49.20;;;22.52;;
76167;SDS011;64927;48.214;16.378;2023-02-10T06:18:36;50.17;;;25.15;;
76167;SDS011;64927;48.214;16.378;2023-02-10T06:21:02;46.33;;;22.77;;
76167;SDS011;64927;48.214;16.378;2023-02-10T06:23:28;50.30;;;25.05;;
76167;SDS011;64927;48.214;16.378;2023-02-10T06:25:54;51.13;;;25.15;;
76167;SDS011;64927;48.214;16.378;2023-02-10T06:28:23;40.50;;;23.05;;
76167;SDS011;64927;48.214;16.378;2023-02-10T06:30:49;42.47;;;23.85;;
76167;SDS011;64927;48.214;16.378;2023-02-10T06:33:15;45.38;;;24.70;;
76167;SDS011;64927;48.214;16.378;2023-02-10T06:35:41;53.70;;;24.42;;
76167;SDS011;64927;48.214;16.378;2023-02-10T06:38:07;54.35;;;26.65;;
76167;SDS011;64927;48.214;16.378;2023-02-10T06:40:32;50.75;;;26.10;;
76167;SDS011;64927;48.214;16.378;2023-02-10T06:42:58;55.63;;;26.42;;
76167;SDS011;64927;48.214;16.378;2023-02-10T06:45:26;50.53;;;26.20;;
76167;SDS011;64927;48.214;16.378;2023-02-10T06:47:52;52.25;;;24.80;;
76167;SDS011;64927;48.214;16.378;2023-02-10T06:50:17;49.75;;;25.08;;
76167;SDS011;64927;48.214;16.378;2023-02-10T06:52:50;49.95;;;25.88;;
76167;SDS011;64927;48.214;16.378;2023-02-10T06:55:15;55.78;;;29.45;;
76167;SDS011;64927;48.214;16.378;2023-02-10T06:57:43;64.53;;;31.52;;
76167;SDS011;64927;48.214;16.378;2023-02-10T07:00:10;56.67;;;28.52;;
76167;SDS011;64927;48.214;16.378;2023-02-10T07:02:38;46.92;;;26.30;;
76167;SDS011;64927;48.214;16.378;2023-02-10T07:05:05;49.58;;;25.90;;
76167;SDS011;64927;48.214;16.378;2023-02-10T07:07:32;52.03;;;25.70;;
76167;SDS011;64927;48.214;16.378;2023-02-10T07:09:59;47.00;;;24.35;;
76167;SDS011;64927;48.214;16.378;2023-02-10T07:12:25;54.60;;;26.38;;
76167;SDS011;64927;48.214;16.378;2023-02-10T07:14:51;50.38;;;24.85;;
76167;SDS011;64927;48.214;16.378;2023-02-10T07:17:17;45.47;;;24.27;;
76167;SDS011;64927;48.214;16.378;2023-02-10T07:19:46;50.35;;;23.65;;
76167;SDS011;64927;48.214;16.378;2023-02-10T07:22:12;58.03;;;25.02;;
76167;SDS011;64927;48.214;16.378;2023-02-10T07:24:38;42.85;;;24.02;;
76167;SDS011;64927;48.214;16.378;2023-02-10T07:27:04;40.53;;;23.10;;
76167;SDS011;64927;48.214;16.378;2023-02-10T07:29:30;45.00;;;22.27;;
76167;SDS011;64927;48.214;16.378;2023-02-10T07:31:56;48.40;;;23.77;;
76167;SDS011;64927;48.214;16.378;2023-02-10T07:34:25;44.83;;;24.73;;
76167;SDS011;64927;48.214;16.378;2023-02-10T07:36:52;41.75;;;22.48;;
76167;SDS011;64927;48.214;16.378;2023-02-10T07:39:21;48.22;;;23.02;;
76167;SDS011;64927;48.214;16.378;2023-02-10T07:41:50;52.40;;;25.25;;
76167;SDS011;64927;48.214;16.378;2023-02-10T07:44:17;44.95;;;24.52;;
76167;SDS011;64927;48.214;16.378;2023-02-10T07:46:45;45.42;;;25.00;;
76167;SDS011;64927;48.214;16.378;2023-02-10T07:49:10;44.42;;;23.83;;
76167;SDS011;64927;48.214;16.378;2023-02-10T07:51:36;52.00;;;25.20;;
76167;SDS011;64927;48.214;16.378;2023-02-10T07:54:02;44.42;;;24.45;;
76167;SDS011;64927;48.214;16.378;2023-02-10T07:56:28;40.28;;;24.17;;
76167;SDS011;64927;48.214;16.378;2023-02-10T07:58:53;48.15;;;25.10;;
76167;SDS011;64927;48.214;16.378;2023-02-10T08:01:21;52.25;;;25.65;;
76167;SDS011;64927;48.214;16.378;2023-02-10T08:03:49;54.78;;;24.58;;
76167;SDS011;64927;48.214;16.378;2023-02-10T08:06:19;44.05;;;24.35;;
76167;SDS011;64927;48.214;16.378;2023-02-10T08:08:48;45.17;;;23.13;;
76167;SDS011;64927;48.214;16.378;2023-02-10T08:11:14;44.35;;;21.80;;
76167;SDS011;64927;48.214;16.378;2023-02-10T08:13:44;39.65;;;22.60;;
76167;SDS011;64927;48.214;16.378;2023-02-10T08:16:10;34.92;;;20.40;;
76167;SDS011;64927;48.214;16.378;2023-02-10T08:18:39;38.05;;;20.70;;
76167;SDS011;64927;48.214;16.378;2023-02-10T08:21:06;37.40;;;19.95;;
76167;SDS011;64927;48.214;16.378;2023-02-10T08:23:33;38.13;;;20.17;;
76167;SDS011;64927;48.214;16.378;2023-02-10T08:26:01;38.45;;;20.67;;
76167;SDS011;64927;48.214;16.378;2023-02-10T08:28:32;38.38;;;21.50;;
76167;SDS011;64927;48.214;16.378;2023-02-10T08:31:02;39.10;;;22.98;;
76167;SDS011;64927;48.214;16.378;2023-02-10T08:33:34;37.63;;;20.98;;
76167;SDS011;64927;48.214;16.378;2023-02-10T08:36:06;36.85;;;20.27;;
76167;SDS011;64927;48.214;16.378;2023-02-10T08:38:33;34.65;;;22.23;;
76167;SDS011;64927;48.214;16.378;2023-02-10T08:41:00;36.75;;;21.77;;
76167;SDS011;64927;48.214;16.378;2023-02-10T08:43:26;41.05;;;21.52;;
76167;SDS011;64927;48.214;16.378;2023-02-10T08:45:54;34.92;;;21.35;;
76167;SDS011;64927;48.214;16.378;2023-02-10T08:48:24;31.67;;;20.45;;
76167;SDS011;64927;48.214;16.378;2023-02-10T08:50:50;42.22;;;20.73;;
76167;SDS011;64927;48.214;16.378;2023-02-10T08:53:15;33.90;;;20.70;;
76167;SDS011;64927;48.214;16.378;2023-02-10T08:55:41;40.92;;;22.98;;
76167;SDS011;64927;48.214;16.378;2023-02-10T08:58:07;37.28;;;21.15;;
76167;SDS011;64927;48.214;16.378;2023-02-10T09:00:33;38.35;;;22.55;;
76167;SDS011;64927;48.214;16.378;2023-02-10T09:02:59;40.13;;;22.00;;
76167;SDS011;64927;48.214;16.378;2023-02-10T09:05:25;40.40;;;22.30;;
76167;SDS011;64927;48.214;16.378;2023-02-10T09:07:53;39.72;;;23.30;;
76167;SDS011;64927;48.214;16.378;2023-02-10T09:10:21;42.42;;;22.73;;
76167;SDS011;64927;48.214;16.378;2023-02-10T09:12:49;37.42;;;22.92;;
76167;SDS011;64927;48.214;16.378;2023-02-10T09:15:19;41.45;;;23.95;;
76167;SDS011;64927;48.214;16.378;2023-02-10T09:17:45;35.92;;;22.83;;
76167;SDS011;64927;48.214;16.378;2023-02-10T09:20:10;39.88;;;23.70;;
76167;SDS011;64927;48.214;16.378;2023-02-10T09:22:36;39.38;;;21.85;;
76167;SDS011;64927;48.214;16.378;2023-02-10T09:25:02;37.13;;;23.40;;
76167;SDS011;64927;48.214;16.378;2023-02-10T09:27:29;36.72;;;23.50;;
76167;SDS011;64927;48.214;16.378;2023-02-10T09:29:54;43.38;;;25.55;;
76167;SDS011;64927;48.214;16.378;2023-02-10T09:32:20;42.25;;;25.15;;
76167;SDS011;64927;48.214;16.378;2023-02-10T09:34:49;40.38;;;24.50;;
76167;SDS011;64927;48.214;16.378;2023-02-10T09:37:14;42.25;;;23.60;;
76167;SDS011;64927;48.214;16.378;2023-02-10T09:39:40;42.22;;;23.92;;
76167;SDS011;64927;48.214;16.378;2023-02-10T09:42:08;40.17;;;24.92;;
76167;SDS011;64927;48.214;16.378;2023-02-10T09:44:35;37.15;;;23.70;;
76167;SDS011;64927;48.214;16.378;2023-02-10T09:52:59;48.70;;;28.33;;
76167;SDS011;64927;48.214;16.378;2023-02-10T10:00:45;42.38;;;28.35;;
76167;SDS011;64927;48.214;16.378;2023-02-10T10:03:21;48.03;;;27.02;;
76167;SDS011;64927;48.214;16.378;2023-02-10T10:10:44;55.55;;;31.75;;
76167;SDS011;64927;48.214;16.378;2023-02-10T10:13:15;56.30;;;31.00;;
76167;SDS011;64927;48.214;16.378;2023-02-10T10:15:55;53.05;;;30.15;;
76167;SDS011;64927;48.214;16.378;2023-02-10T10:18:31;49.70;;;30.92;;
76167;SDS011;64927;48.214;16.378;2023-02-10T10:21:17;50.67;;;30.92;;
76167;SDS011;64927;48.214;16.378;2023-02-10T10:23:56;48.67;;;30.50;;
76167;SDS011;64927;48.214;16.378;2023-02-10T10:29:23;47.40;;;28.92;;
76167;SDS011;64927;48.214;16.378;2023-02-10T10:32:16;49.92;;;29.55;;
76167;SDS011;64927;48.214;16.378;2023-02-10T10:34:50;50.65;;;27.80;;
76167;SDS011;64927;48.214;16.378;2023-02-10T10:37:24;50.25;;;30.45;;
76167;SDS011;64927;48.214;16.378;2023-02-10T10:39:54;49.72;;;30.23;;
76167;SDS011;64927;48.214;16.378;2023-02-10T10:42:28;46.08;;;30.15;;
76167;SDS011;64927;48.214;16.378;2023-02-10T10:48:18;44.75;;;26.60;;
76167;SDS011;64927;48.214;16.378;2023-02-10T10:50:55;47.03;;;27.50;;
76167;SDS011;64927;48.214;16.378;2023-02-10T10:57:13;41.80;;;26.02;;
76167;SDS011;64927;48.214;16.378;2023-02-10T10:59:15;118.07;;;72.85;;
76167;SDS011;64927;48.214;16.378;2023-02-10T11:01:47;51.45;;;28.48;;
76167;SDS011;64927;48.214;16.378;2023-02-10T11:04:18;45.95;;;26.35;;
76167;SDS011;64927;48.214;16.378;2023-02-10T11:06:51;39.45;;;24.25;;
76167;SDS011;64927;48.214;16.378;2023-02-10T11:12:13;41.58;;;23.30;;
76167;SDS011;64927;48.214;16.378;2023-02-10T11:15:00;39.17;;;25.23;;
76167;SDS011;64927;48.214;16.378;2023-02-10T11:17:38;38.30;;;22.08;;
76167;SDS011;64927;48.214;16.378;2023-02-10T11:20:23;37.15;;;24.00;;
76167;SDS011;64927;48.214;16.378;2023-02-10T11:23:35;37.13;;;23.42;;
76167;SDS011;64927;48.214;16.378;2023-02-10T11:25:46;38.08;;;22.85;;
76167;SDS011;64927;48.214;16.378;2023-02-10T11:28:24;33.95;;;21.60;;
76167;SDS011;64927;48.214;16.378;2023-02-10T11:30:58;36.38;;;22.48;;
76167;SDS011;64927;48.214;16.378;2023-02-10T11:33:28;34.47;;;21.42;;
76167;SDS011;64927;48.214;16.378;2023-02-10T11:36:07;33.42;;;23.05;;
76167;SDS011;64927;48.214;16.378;2023-02-10T11:38:36;31.98;;;21.13;;
76167;SDS011;64927;48.214;16.378;2023-02-10T11:41:05;37.22;;;23.08;;
76167;SDS011;64927;48.214;16.378;2023-02-10T11:46:07;30.98;;;20.60;;
76167;SDS011;64927;48.214;16.378;2023-02-10T11:49:01;32.10;;;19.00;;
76167;SDS011;64927;48.214;16.378;2023-02-10T11:51:28;34.97;;;20.38;;
76167;SDS011;64927;48.214;16.378;2023-02-10T11:53:57;32.55;;;19.83;;
76167;SDS011;64927;48.214;16.378;2023-02-10T12:05:31;30.63;;;19.48;;
76167;SDS011;64927;48.214;16.378;2023-02-10T12:08:26;28.38;;;18.42;;
76167;SDS011;64927;48.214;16.378;2023-02-10T12:11:03;29.70;;;18.50;;
76167;SDS011;64927;48.214;16.378;2023-02-10T12:13:55;30.33;;;17.98;;
76167;SDS011;64927;48.214;16.378;2023-02-10T12:16:50;28.15;;;17.73;;
76167;SDS011;64927;48.214;16.378;2023-02-10T12:26:58;26.67;;;16.98;;
76167;SDS011;64927;48.214;16.378;2023-02-10T12:35:18;29.27;;;17.05;;
76167;SDS011;64927;48.214;16.378;2023-02-10T12:40:41;26.70;;;17.08;;
76167;SDS011;64927;48.214;16.378;2023-02-10T12:43:22;24.85;;;16.63;;
76167;SDS011;64927;48.214;16.378;2023-02-10T12:48:35;30.17;;;16.85;;
76167;SDS011;64927;48.214;16.378;2023-02-10T12:54:11;24.40;;;15.40;;
76167;SDS011;64927;48.214;16.378;2023-02-10T12:59:26;33.25;;;14.75;;
76167;SDS011;64927;48.214;16.378;2023-02-10T13:02:04;28.13;;;16.42;;
76167;SDS011;64927;48.214;16.378;2023-02-10T13:04:40;29.88;;;17.75;;
76167;SDS011;64927;48.214;16.378;2023-02-10T13:12:27;24.20;;;16.17;;
76167;SDS011;64927;48.214;16.378;2023-02-10T13:17:51;28.30;;;15.98;;
76167;SDS011;64927;48.214;16.378;2023-02-10T13:20:40;26.60;;;15.52;;
76167;SDS011;64927;48.214;16.378;2023-02-10T13:32:03;24.55;;;15.50;;
76167;SDS011;64927;48.214;16.378;2023-02-10T13:34:55;25.40;;;15.43;;
76167;SDS011;64927;48.214;16.378;2023-02-10T13:40:10;21.05;;;14.38;;
76167;SDS011;64927;48.214;16.378;2023-02-10T13:43:17;25.58;;;14.27;;
76167;SDS011;64927;48.214;16.378;2023-02-10T13:45:50;24.63;;;14.77;;
76167;SDS011;64927;48.214;16.378;2023-02-10T13:48:27;25.85;;;14.32;;
76167;SDS011;64927;48.214;16.378;2023-02-10T13:50:58;26.67;;;14.68;;
76167;SDS011;64927;48.214;16.378;2023-02-10T13:56:51;24.70;;;15.20;;
76167;SDS011;64927;48.214;16.378;2023-02-10T13:58:58;25.08;;;14.38;;
76167;SDS011;64927;48.214;16.378;2023-02-10T14:04:29;23.27;;;14.80;;
76167;SDS011;64927;48.214;16.378;2023-02-10T14:10:26;26.70;;;15.95;;
76167;SDS011;64927;48.214;16.378;2023-02-10T14:13:04;24.67;;;15.30;;
76167;SDS011;64927;48.214;16.378;2023-02-10T14:15:54;25.45;;;15.30;;
76167;SDS011;64927;48.214;16.378;2023-02-10T14:18:30;26.00;;;16.05;;
76167;SDS011;64927;48.214;16.378;2023-02-10T14:21:03;23.23;;;15.60;;
76167;SDS011;64927;48.214;16.378;2023-02-10T14:23:35;24.15;;;15.48;;
76167;SDS011;64927;48.214;16.378;2023-02-10T14:26:04;24.20;;;16.30;;
76167;SDS011;64927;48.214;16.378;2023-02-10T14:28:33;25.77;;;15.35;;
76167;SDS011;64927;48.214;16.378;2023-02-10T14:31:11;32.85;;;16.30;;
76167;SDS011;64927;48.214;16.378;2023-02-10T14:33:42;27.08;;;17.75;;
76167;SDS011;64927;48.214;16.378;2023-02-10T14:36:19;26.33;;;16.77;;
76167;SDS011;64927;48.214;16.378;2023-02-10T14:38:48;26.55;;;17.67;;
76167;SDS011;64927;48.214;16.378;2023-02-10T14:41:19;32.20;;;18.20;;
76167;SDS011;64927;48.214;16.378;2023-02-10T14:43:46;30.52;;;18.67;;
76167;SDS011;64927;48.214;16.378;2023-02-10T14:46:24;32.50;;;18.83;;
76167;SDS011;64927;48.214;16.378;2023-02-10T14:49:02;28.38;;;18.60;;
76167;SDS011;64927;48.214;16.378;2023-02-10T14:51:37;32.35;;;19.45;;
76167;SDS011;64927;48.214;16.378;2023-02-10T14:54:08;29.83;;;18.63;;
76167;SDS011;64927;48.214;16.378;2023-02-10T14:59:40;41.47;;;22.02;;
76167;SDS011;64927;48.214;16.378;2023-02-10T15:02:17;29.90;;;18.50;;
76167;SDS011;64927;48.214;16.378;2023-02-10T15:04:45;35.78;;;20.35;;
76167;SDS011;64927;48.214;16.378;2023-02-10T15:07:20;50.83;;;26.88;;
76167;SDS011;64927;48.214;16.378;2023-02-10T15:09:49;46.83;;;24.85;;
76167;SDS011;64927;48.214;16.378;2023-02-10T15:12:20;38.42;;;22.10;;
76167;SDS011;64927;48.214;16.378;2023-02-10T15:15:02;34.65;;;20.70;;
76167;SDS011;64927;48.214;16.378;2023-02-10T15:17:40;34.70;;;20.48;;
76167;SDS011;64927;48.214;16.378;2023-02-10T15:20:20;34.00;;;20.20;;
76167;SDS011;64927;48.214;16.378;2023-02-10T15:28:20;32.00;;;19.98;;
76167;SDS011;64927;48.214;16.378;2023-02-10T15:33:54;34.93;;;20.17;;
76167;SDS011;64927;48.214;16.378;2023-02-10T15:36:34;31.15;;;19.77;;
76167;SDS011;64927;48.214;16.378;2023-02-10T15:47:13;36.85;;;20.83;;
76167;SDS011;64927;48.214;16.378;2023-02-10T15:49:40;34.55;;;19.65;;
76167;SDS011;64927;48.214;16.378;2023-02-10T15:52:11;30.85;;;19.80;;
76167;SDS011;64927;48.214;16.378;2023-02-10T15:54:45;41.00;;;21.65;;
76167;SDS011;64927;48.214;16.378;2023-02-10T15:57:15;32.75;;;20.67;;
76167;SDS011;64927;48.214;16.378;2023-02-10T15:59:41;28.60;;;19.30;;
76167;SDS011;64927;48.214;16.378;2023-02-10T16:02:10;31.70;;;20.02;;
76167;SDS011;64927;48.214;16.378;2023-02-10T16:04:39;33.17;;;20.83;;
76167;SDS011;64927;48.214;16.378;2023-02-10T16:07:09;34.70;;;21.30;;
76167;SDS011;64927;48.214;16.378;2023-02-10T16:09:45;39.47;;;22.35;;
76167;SDS011;64927;48.214;16.378;2023-02-10T16:12:11;43.08;;;23.23;;
76167;SDS011;64927;48.214;16.378;2023-02-10T16:14:37;37.97;;;22.42;;
76167;SDS011;64927;48.214;16.378;2023-02-10T16:17:03;36.30;;;22.45;;
76167;SDS011;64927;48.214;16.378;2023-02-10T16:19:31;34.65;;;21.17;;
76167;SDS011;64927;48.214;16.378;2023-02-10T16:22:01;40.63;;;21.90;;
76167;SDS011;64927;48.214;16.378;2023-02-10T16:24:32;33.47;;;20.67;;
76167;SDS011;64927;48.214;16.378;2023-02-10T16:27:00;38.08;;;22.65;;
76167;SDS011;64927;48.214;16.378;2023-02-10T16:29:29;35.80;;;21.75;;
76167;SDS011;64927;48.214;16.378;2023-02-10T16:31:56;40.20;;;25.42;;
76167;SDS011;64927;48.214;16.378;2023-02-10T16:34:25;37.83;;;23.15;;
76167;SDS011;64927;48.214;16.378;2023-02-10T16:36:54;37.65;;;20.17;;
76167;SDS011;64927;48.214;16.378;2023-02-10T16:39:21;40.22;;;21.55;;
76167;SDS011;64927;48.214;16.378;2023-02-10T16:41:49;36.92;;;21.27;;
76167;SDS011;64927;48.214;16.378;2023-02-10T16:44:16;32.25;;;20.98;;
76167;SDS011;64927;48.214;16.378;2023-02-10T16:46:43;36.10;;;21.02;;
76167;SDS011;64927;48.214;16.378;2023-02-10T16:49:12;39.58;;;22.40;;